Connor, Texas
Current Conditions -  °F | °C
As of 5:53 PM on Wednesday 28 Jan 2015 (Local Time) from KUTS Reporting Station
Clear Clear  
Wind Chill: 22°   Ceiling: Unl
Heat Index: 22°   Visibility: 10mi
Dew Point:   Wind: 8mph
Humidity: 35%   Direction: 180°S
Pressure: 30.09"   Gusts: NA
Location:  30.9578°N, 95.8924°W
Report Text: KUTS 282353Z AUTO 18007KT 10SM CLR 22/06 A3009 RMK AO2 SLP187 T02170056 10261 20217 50001
Loading
Personal Weather Stations






























Interactive Weather Map New forecast layout! Learn more

10-Day Weather Forecast

Advertisements
Track Severe Weather on mobile